Fridley, Minnesota
Current Conditions -  °F | °C
As of 6:14 AM on Saturday 25 Oct 2014 (Local Time) from KANE Reporting Station
Clear Clear  
Wind Chill: 50°   Ceiling: Unl
Heat Index: 50°   Visibility: 10mi
Dew Point: 36°   Wind: 9mph
Humidity: 58%   Direction: 280°W
Pressure: 29.98"   Gusts: NA
Location:  45.09°N, 93.26°W
Report Text: KANE 251114Z AUTO 28008KT 10SM CLR 10/02 A2998 RMK AO2
Loading
Personal Weather Stations






























Interactive Weather Map
Tropical Storm Tracking
New forecast layout! Learn more

10-Day Weather Forecast

Advertisements
Track Severe Weather on mobile